Time;durP1;ratioP1;P1;durP2;ratioP2;P2;SDS_P1;SDS_P2;PMS_P1;PMS_P2;Temp;Humidity;BMP_temperature;BMP_pressure;BME280_temperature;BME280_humidity;BME280_pressure;Samples;Min_cycle;Max_cycle;Signal;HPM_P1;HPM_P2
2022/01/17 00:00:38;;;;;;;29.63;17.47;;;;;;;-1.68;72.65;99869.25;1671721;85;21046;-67
2022/01/17 00:03:05;;;;;;;24.32;15.35;;;;;;;-1.72;72.67;99861.30;1668842;84;21557;-65
2022/01/17 00:05:32;;;;;;;25.13;15.93;;;;;;;-1.70;72.56;99844.55;1670333;84;21073;-67
2022/01/17 00:07:59;;;;;;;25.60;16.20;;;;;;;-1.73;72.51;99831.74;1667909;85;21036;-68
2022/01/17 00:10:30;;;;;;;24.77;15.87;;;;;;;-1.70;72.45;99841.93;1668433;84;21547;-72
2022/01/17 00:12:59;;;;;;;24.73;16.00;;;;;;;-1.68;72.31;99836.59;1687648;84;21494;-65
2022/01/17 00:15:42;;;;;;;24.43;15.10;;;;;;;-1.66;72.17;99824.23;1698860;84;21508;-63
2022/01/17 00:20:38;;;;;;;29.57;16.47;;;;;;;-1.64;71.92;99817.09;1685075;80;21082;-65
2022/01/17 00:23:05;;;;;;;21.33;14.40;;;;;;;-1.64;71.84;99817.09;1719325;81;21064;-65
2022/01/17 00:25:31;;;;;;;27.22;16.32;;;;;;;-1.63;71.55;99799.17;1719645;81;21462;-64
2022/01/17 00:27:57;;;;;;;24.77;13.75;;;;;;;-1.59;71.40;99804.02;1713200;81;21525;-70
2022/01/17 00:30:24;;;;;;;25.23;14.03;;;;;;;-1.61;70.42;99800.70;1738358;81;21118;-64
2022/01/17 00:32:51;;;;;;;24.07;15.50;;;;;;;-1.53;70.53;99800.08;1726706;81;21538;-63
2022/01/17 00:35:16;;;;;;;22.32;14.23;;;;;;;-1.48;70.54;99798.41;1694829;82;21006;-64
2022/01/17 00:37:42;;;;;;;22.07;13.40;;;;;;;-1.46;70.40;99801.73;1689886;83;21537;-67
2022/01/17 00:40:11;;;;;;;23.85;15.93;;;;;;;-1.44;70.04;99795.41;1686740;83;20994;-66
2022/01/17 00:42:38;;;;;;;23.20;14.37;;;;;;;-1.40;69.79;99791.59;1682686;83;21299;-64
2022/01/17 00:45:07;;;;;;;24.25;15.13;;;;;;;-1.38;69.72;99786.23;1692702;82;21541;-65
2022/01/17 00:47:35;;;;;;;22.90;13.57;;;;;;;-1.37;69.58;99775.66;1682091;83;21026;-67
2022/01/17 00:50:01;;;;;;;20.73;13.13;;;;;;;-1.37;69.52;99762.59;1692889;83;21062;-64
2022/01/17 00:52:27;;;;;;;28.35;14.47;;;;;;;-1.37;69.52;99758.67;1689198;83;21046;-64
2022/01/17 00:54:53;;;;;;;22.05;14.50;;;;;;;-1.39;69.46;99759.77;1682162;83;21018;-63
2022/01/17 00:57:19;;;;;;;21.65;13.48;;;;;;;-1.37;69.25;99754.75;1682510;83;21523;-65
2022/01/17 01:02:38;;;;;;;23.57;14.27;;;;;;;-1.23;69.01;99754.09;1736153;81;22941;-65
2022/01/17 01:05:07;;;;;;;26.73;15.53;;;;;;;-1.22;68.75;99745.30;1710545;82;21024;-63
2022/01/17 01:07:34;;;;;;;21.87;15.93;;;;;;;-1.18;68.71;99755.36;1700184;82;21580;-66
2022/01/17 01:10:10;;;;;;;25.25;13.83;;;;;;;-1.15;68.53;99746.91;1709970;82;21021;-64
2022/01/17 01:12:35;;;;;;;22.73;15.17;;;;;;;-1.12;68.57;99744.88;1707353;82;21068;-66
2022/01/17 01:15:01;;;;;;;22.98;14.98;;;;;;;-1.13;68.41;99736.69;1708357;82;21504;-65
2022/01/17 01:17:37;;;;;;;21.60;14.63;;;;;;;-1.13;68.33;99736.69;1702771;82;21592;-66
2022/01/17 01:20:15;;;;;;;25.07;15.00;;;;;;;-1.10;68.37;99737.72;1698261;82;21163;-64
2022/01/17 01:27:58;;;;;;;23.13;13.33;;;;;;;-0.97;67.84;99732.30;1711906;82;20993;-64
2022/01/17 01:30:27;;;;;;;23.07;14.63;;;;;;;-0.92;67.67;99720.98;1702764;82;21489;-63
2022/01/17 01:32:56;;;;;;;20.93;13.73;;;;;;;-0.89;67.29;99714.16;1711477;82;21022;-65
2022/01/17 01:35:23;;;;;;;29.00;14.63;;;;;;;-0.82;67.33;99706.14;1703091;82;21100;-64
2022/01/17 01:37:49;;;;;;;26.23;15.50;;;;;;;-0.78;66.77;99701.48;1710563;82;21518;-63
2022/01/17 01:40:17;;;;;;;;;;;;;;;-0.76;66.63;99703.97;1714736;82;21100;-64
2022/01/17 01:42:46;;;;;;;22.00;14.37;;;;;;;-0.70;66.66;99697.72;1709626;82;20108;-63
2022/01/17 01:45:14;;;;;;;28.73;15.63;;;;;;;-0.68;66.39;99684.05;1714840;81;20982;-68
2022/01/17 01:47:43;;;;;;;23.80;13.53;;;;;;;-0.65;66.06;99682.94;1701167;82;21053;-67
2022/01/17 01:50:11;;;;;;;23.20;13.73;;;;;;;-0.60;66.26;99672.91;1705529;82;21480;-64
2022/01/17 01:52:41;;;;;;;22.93;14.80;;;;;;;-0.56;66.50;99677.41;1698601;82;21524;-66
2022/01/17 01:55:13;;;;;;;20.60;12.80;;;;;;;-0.51;66.64;99670.80;1701907;82;21083;-64
2022/01/17 01:57:42;;;;;;;20.90;13.37;;;;;;;-0.47;67.23;99668.72;1710101;82;21637;-64
2022/01/17 02:00:11;;;;;;;21.00;13.50;;;;;;;-0.44;68.13;99664.05;1702485;82;21185;-77
2022/01/17 02:02:39;;;;;;;24.00;15.13;;;;;;;-0.40;69.19;99660.22;1726321;81;21120;-65
2022/01/17 02:05:07;;;;;;;23.57;14.40;;;;;;;-0.40;70.08;99662.84;1733922;81;21108;-66
2022/01/17 02:07:36;;;;;;;22.50;14.40;;;;;;;-0.44;70.82;99646.21;1730702;81;21009;-68
2022/01/17 02:10:07;;;;;;;22.03;14.03;;;;;;;-0.47;72.49;99632.06;1711208;82;21253;-65
2022/01/17 02:12:33;;;;;;;20.57;13.63;;;;;;;-0.54;73.39;99626.55;1713824;81;21089;-63
2022/01/17 02:15:00;;;;;;;24.07;15.55;;;;;;;-0.65;74.86;99603.92;1712465;82;21497;-63
2022/01/17 02:17:27;;;;;;;;;;;;;;;-0.73;75.60;99602.47;1732257;81;21013;-64
2022/01/17 02:20:04;;;;;;;21.82;13.80;;;;;;;-0.78;76.24;99599.42;1732940;81;20135;-64
2022/01/17 02:22:24;;;;;;;26.93;14.13;;;;;;;-0.91;77.52;99570.88;1740720;81;20985;-68
2022/01/17 02:24:49;;;;;;;21.05;14.15;;;;;;;-1.00;78.69;99569.90;1711620;81;21489;-64
2022/01/17 02:27:15;;;;;;;20.95;15.03;;;;;;;-1.00;78.94;99558.13;1728318;81;21033;-64
2022/01/17 02:29:42;;;;;;;23.40;13.25;;;;;;;-1.01;79.55;99547.80;1723552;81;21030;-63
2022/01/17 02:32:08;;;;;;;24.90;15.48;;;;;;;-1.03;80.24;99524.87;1726036;81;21055;-66
2022/01/17 02:34:41;;;;;;;23.02;15.32;;;;;;;-1.03;80.62;99496.09;1731910;80;21003;-65
2022/01/17 02:37:09;;;;;;;25.70;15.37;;;;;;;-1.02;80.70;99515.58;1734376;81;21056;-65
2022/01/17 02:39:36;;;;;;;25.57;16.23;;;;;;;-1.04;81.42;99509.62;1745465;82;21391;-63
2022/01/17 02:42:05;;;;;;;21.73;15.33;;;;;;;-1.02;81.28;99516.04;1730877;81;21492;-66
2022/01/17 02:44:32;;;;;;;29.17;16.20;;;;;;;-1.03;81.22;99512.61;1720330;81;21026;-61
2022/01/17 02:47:02;;;;;;;22.63;15.30;;;;;;;-1.05;81.87;99523.69;1690618;84;21008;-65
2022/01/17 02:49:27;;;;;;;26.60;15.33;;;;;;;-1.01;81.63;99525.56;1691416;83;21538;-63
2022/01/17 02:51:54;;;;;;;22.50;14.10;;;;;;;-0.96;81.56;99512.91;1676846;83;21592;-63
2022/01/17 02:54:20;;;;;;;25.33;15.33;;;;;;;-0.93;81.50;99510.50;1690853;84;21034;-63
2022/01/17 02:56:48;;;;;;;23.43;16.57;;;;;;;-0.91;81.39;99500.72;1696605;82;20991;-64
2022/01/17 02:59:14;;;;;;;24.72;15.10;;;;;;;-0.90;81.11;99498.47;1718840;82;21058;-63
2022/01/17 03:01:40;;;;;;;27.70;16.12;;;;;;;-0.87;81.07;99485.09;1709692;82;21149;-62
2022/01/17 03:04:07;;;;;;;;;;;;;;;-0.86;80.93;99484.14;1727640;82;20978;-64
2022/01/17 03:06:34;;;;;;;23.73;13.37;;;;;;;-0.84;80.85;99488.27;1741630;82;20184;-70
2022/01/17 03:09:00;;;;;;;23.77;15.45;;;;;;;-1.21;80.86;99430.03;1719963;82;21018;-61
2022/01/17 03:11:28;;;;;;;23.38;14.73;;;;;;;-0.82;80.75;99467.20;1712316;80;20998;-63
2022/01/17 03:13:55;;;;;;;31.77;16.13;;;;;;;-0.80;80.70;99467.89;1722427;82;21053;-63
2022/01/17 03:16:32;;;;;;;22.77;15.43;;;;;;;-0.77;80.50;99440.16;1716904;82;21003;-63
2022/01/17 03:18:58;;;;;;;24.63;15.73;;;;;;;-0.70;80.24;99451.70;1710457;82;21046;-62
2022/01/17 03:21:27;;;;;;;25.47;14.77;;;;;;;-0.66;80.06;99440.48;1739835;82;21117;-64
2022/01/17 03:23:53;;;;;;;27.50;16.33;;;;;;;-0.62;79.61;99433.53;1723858;82;21543;-63
2022/01/17 03:26:20;;;;;;;27.67;15.30;;;;;;;-0.60;79.42;99434.71;1710442;82;21463;-64
2022/01/17 03:28:46;;;;;;;22.98;15.88;;;;;;;-0.58;79.23;99424.92;1728732;82;21061;-64
2022/01/17 03:31:12;;;;;;;21.95;14.35;;;;;;;-0.55;78.96;99421.19;1722309;82;21519;-65
2022/01/17 03:33:39;;;;;;;27.62;16.27;;;;;;;-0.52;78.71;99417.00;1723791;82;21138;-64
2022/01/17 03:36:06;;;;;;;22.07;15.53;;;;;;;-0.48;78.34;99420.98;1686315;83;21059;-66
2022/01/17 03:38:34;;;;;;;24.37;15.20;;;;;;;-0.45;77.92;99411.06;1692085;83;21010;-63
2022/01/17 03:41:02;;;;;;;27.23;15.00;;;;;;;-0.43;77.34;99411.74;1688191;83;21066;-63
2022/01/17 03:43:29;;;;;;;27.03;16.40;;;;;;;-0.39;77.11;99403.12;1674287;83;21037;-62
2022/01/17 03:45:57;;;;;;;21.75;13.98;;;;;;;-0.34;76.70;99385.67;1705993;82;20989;-64
2022/01/17 03:48:24;;;;;;;22.23;14.53;;;;;;;-0.31;76.33;99374.92;1708005;83;21009;-64
2022/01/17 03:50:51;;;;;;;23.70;14.63;;;;;;;-0.30;75.71;99359.08;1709285;82;20982;-71
2022/01/17 03:53:18;;;;;;;26.00;15.40;;;;;;;-0.27;75.31;99350.91;1719535;82;21459;-64
2022/01/17 03:55:44;;;;;;;26.07;15.13;;;;;;;-0.22;74.72;99357.87;1708999;82;21497;-63
2022/01/17 03:58:10;;;;;;;26.57;14.63;;;;;;;-0.18;74.28;99355.79;1714218;82;21065;-63
2022/01/17 04:00:41;;;;;;;24.30;14.98;;;;;;;-0.14;73.84;99358.45;1721475;82;21033;-63
2022/01/17 04:03:08;;;;;;;29.13;15.30;;;;;;;-0.07;73.46;99350.86;1717044;82;21131;-63
2022/01/17 04:05:35;;;;;;;23.77;14.53;;;;;;;-0.03;72.80;99348.29;1718152;82;20967;-63
2022/01/17 04:08:01;;;;;;;;;;;;;;;0.04;72.26;99345.91;1721124;82;21006;-64
2022/01/17 04:10:27;;;;;;;30.73;14.13;;;;;;;0.04;71.57;99327.09;1717954;82;20431;-67
2022/01/17 04:13:00;;;;;;;23.83;13.70;;;;;;;0.04;70.92;99331.03;1717136;82;21017;-65
2022/01/17 04:15:22;;;;;;;24.90;14.63;;;;;;;0.11;71.14;99334.69;1714705;83;21093;-67
2022/01/17 04:17:48;;;;;;;22.20;12.82;;;;;;;0.14;70.25;99318.69;1721628;82;21541;-64
2022/01/17 04:20:25;;;;;;;27.30;13.10;;;;;;;0.19;70.11;99316.95;1723016;82;21058;-63
2022/01/17 04:22:51;;;;;;;20.43;12.63;;;;;;;0.23;69.32;99316.15;1713939;82;20986;-63
2022/01/17 04:25:14;;;;;;;20.67;11.63;;;;;;;0.28;69.13;99302.94;1680371;83;21033;-63
2022/01/17 04:27:40;;;;;;;17.95;12.33;;;;;;;0.28;68.45;99298.19;1696316;84;21038;-64
2022/01/17 04:30:10;;;;;;;22.52;13.03;;;;;;;0.33;68.19;99292.03;1688459;83;21034;-64
2022/01/17 04:32:37;;;;;;;19.43;12.67;;;;;;;0.38;68.13;99287.99;1694360;84;21112;-69
2022/01/17 04:35:04;;;;;;;17.37;12.23;;;;;;;0.39;67.61;99287.50;1743648;81;20973;-64
2022/01/17 04:37:31;;;;;;;18.00;11.67;;;;;;;0.45;67.69;99294.76;1747475;81;21553;-64
2022/01/17 04:39:58;;;;;;;19.03;11.07;;;;;;;0.47;67.31;99293.30;1741588;80;22165;-63
2022/01/17 04:42:28;;;;;;;25.75;11.90;;;;;;;0.51;67.01;99304.67;1753368;81;21006;-68
2022/01/17 04:45:10;;;;;;;20.97;11.43;;;;;;;0.54;66.92;99295.67;1748517;80;21018;-64
2022/01/17 04:47:44;;;;;;;19.23;11.97;;;;;;;0.58;67.31;99295.71;1701900;83;21511;-72
2022/01/17 04:50:20;;;;;;;25.77;14.80;;;;;;;0.61;67.77;99290.17;1706159;83;21034;-65
2022/01/17 04:52:47;;;;;;;21.30;13.98;;;;;;;0.64;68.64;99287.73;1659094;85;21005;-64
2022/01/17 04:55:16;;;;;;;22.60;13.13;;;;;;;0.59;69.80;99284.26;1691285;82;20996;-66
2022/01/17 04:57:44;;;;;;;15.40;10.27;;;;;;;0.55;70.35;99278.98;1683682;84;21014;-66
2022/01/17 05:00:15;;;;;;;16.90;11.30;;;;;;;0.52;71.81;99270.91;1679410;84;21038;-64
2022/01/17 05:02:43;;;;;;;18.07;12.10;;;;;;;0.50;72.54;99257.13;1654924;85;21069;-62
2022/01/17 05:05:12;;;;;;;27.40;14.43;;;;;;;0.43;73.52;99246.08;1653497;85;21496;-64
2022/01/17 05:07:39;;;;;;;21.27;12.53;;;;;;;0.37;74.46;99239.64;1651747;85;21176;-66
2022/01/17 05:10:16;;;;;;;18.93;12.57;;;;;;;0.26;75.65;99230.19;1653954;85;21059;-64
2022/01/17 05:12:45;;;;;;;23.92;12.03;;;;;;;0.17;76.82;99229.30;1645774;84;20992;-64
2022/01/17 05:15:26;;;;;;;17.33;11.10;;;;;;;0.14;76.79;99231.39;1641327;85;21035;-64
2022/01/17 05:17:56;;;;;;;21.23;12.57;;;;;;;0.08;77.76;99224.14;1642964;87;21635;-65
2022/01/17 05:20:13;;;;;;;17.37;12.60;;;;;;;0.08;77.93;99218.89;1643372;85;21054;-65
2022/01/17 05:22:41;;;;;;;20.88;13.08;;;;;;;0.07;78.12;99210.19;1648546;85;20998;-63
2022/01/17 05:25:11;;;;;;;20.60;12.40;;;;;;;0.07;78.32;99207.56;1655001;85;21083;-63
2022/01/17 05:27:39;;;;;;;21.80;12.63;;;;;;;0.08;78.35;99206.61;1648422;85;21018;-65
2022/01/17 05:30:10;;;;;;;16.50;12.20;;;;;;;0.10;78.55;99202.04;1654257;85;21003;-68
2022/01/17 05:32:37;;;;;;;19.30;13.70;;;;;;;0.13;78.33;99207.45;1642610;85;21556;-65
2022/01/17 05:35:07;;;;;;;16.32;12.23;;;;;;;0.15;78.30;99212.91;1668971;84;21561;-66
2022/01/17 05:37:34;;;;;;;19.63;12.13;;;;;;;0.19;78.27;99214.75;1643059;85;21569;-74
2022/01/17 05:40:02;;;;;;;24.07;13.10;;;;;;;-0.16;78.26;99152.66;1644300;84;22240;-66
2022/01/17 05:42:28;;;;;;;22.43;12.80;;;;;;;0.26;78.13;99211.03;1661952;85;21593;-65
2022/01/17 05:44:54;;;;;;;21.35;13.03;;;;;;;0.25;78.23;99196.29;1651330;84;21013;-63
2022/01/17 05:47:21;;;;;;;20.60;13.38;;;;;;;0.30;78.09;99200.58;1685567;84;20974;-66
2022/01/17 05:49:48;;;;;;;17.92;12.58;;;;;;;0.33;78.02;99201.59;1648805;85;21058;-63
2022/01/17 05:52:15;;;;;;;21.23;15.30;;;;;;;0.36;78.07;99199.50;1682038;84;22030;-63
2022/01/17 05:54:42;;;;;;;20.25;13.65;;;;;;;0.39;78.01;99187.38;1683717;84;21505;-76
2022/01/17 05:57:10;;;;;;;23.63;14.90;;;;;;;0.33;78.10;99164.89;1625627;85;21565;-65
2022/01/17 05:59:37;;;;;;;28.63;14.70;;;;;;;0.45;78.09;99181.20;1627443;87;21491;-63
2022/01/17 06:02:04;;;;;;;25.75;16.23;;;;;;;0.46;78.00;99173.20;1679732;83;21638;-67
2022/01/17 06:04:31;;;;;;;28.40;15.70;;;;;;;0.50;78.03;99180.27;1703010;82;21065;-66
2022/01/17 06:06:57;;;;;;;;;;;;;;;0.55;78.01;99172.78;1706731;82;21149;-65
2022/01/17 06:09:23;;;;;;;26.97;15.43;;;;;;;0.60;77.86;99156.08;1676274;84;20463;-65
2022/01/17 06:11:49;;;;;;;23.65;13.55;;;;;;;0.60;77.85;99161.33;1695844;82;21147;-66
2022/01/17 06:14:17;;;;;;;24.05;14.20;;;;;;;0.63;77.92;99151.85;1686517;83;21110;-69
2022/01/17 06:16:45;;;;;;;26.30;15.40;;;;;;;0.68;77.80;99148.75;1703751;82;21007;-61
2022/01/17 06:19:12;;;;;;;22.63;14.73;;;;;;;0.71;77.65;99141.41;1708862;82;20982;-60
2022/01/17 06:21:40;;;;;;;24.03;14.33;;;;;;;0.75;77.58;99134.05;1710662;82;21119;-62
2022/01/17 06:24:06;;;;;;;;;;;;;;;0.77;77.59;99134.25;1691912;81;21208;-62
2022/01/17 06:26:34;;;;;;;21.37;13.63;;;;;;;0.83;77.43;99131.96;1674926;84;20166;-63
2022/01/17 06:29:00;;;;;;;21.80;14.40;;;;;;;0.81;77.42;99124.27;1680757;84;21166;-61
2022/01/17 06:31:27;;;;;;;22.77;15.38;;;;;;;0.81;77.45;99120.34;1679151;84;21548;-61
2022/01/17 06:33:53;;;;;;;23.83;14.80;;;;;;;0.86;77.33;99121.17;1682683;83;21094;-62
2022/01/17 06:36:19;;;;;;;19.73;12.23;;;;;;;0.88;77.20;99123.14;1681881;84;21069;-61
2022/01/17 06:38:45;;;;;;;21.17;13.70;;;;;;;0.91;77.08;99122.35;1683949;84;21061;-61
2022/01/17 06:41:11;;;;;;;28.62;17.30;;;;;;;0.93;77.00;99120.89;1681086;84;21015;-62
2022/01/17 06:43:37;;;;;;;21.90;15.18;;;;;;;0.94;76.97;99097.12;1680954;84;21637;-61
2022/01/17 06:46:03;;;;;;;28.27;15.43;;;;;;;0.95;76.82;99081.70;1667662;83;21014;-61
2022/01/17 06:48:29;;;;;;;24.18;16.87;;;;;;;0.97;76.63;99077.61;1659241;85;21038;-62
2022/01/17 06:50:56;;;;;;;26.30;16.45;;;;;;;0.97;76.62;99066.61;1664309;84;21533;-62
2022/01/17 06:53:26;;;;;;;23.43;16.50;;;;;;;0.97;76.62;99049.56;1661179;84;21062;-61
2022/01/17 06:55:50;;;;;;;21.07;14.83;;;;;;;1.01;76.54;99037.45;1659320;84;21498;-62
2022/01/17 06:58:17;;;;;;;33.85;17.23;;;;;;;1.02;76.51;99025.95;1667420;85;21001;-65
2022/01/17 07:00:44;;;;;;;23.55;16.00;;;;;;;1.04;76.44;99033.20;1663333;84;21054;-62
2022/01/17 07:03:11;;;;;;;21.80;15.13;;;;;;;1.05;76.35;99046.14;1665765;84;21082;-64
2022/01/17 07:05:38;;;;;;;23.07;16.93;;;;;;;1.08;76.53;99084.39;1652286;84;21306;-62
2022/01/17 07:08:04;;;;;;;25.10;16.48;;;;;;;1.10;76.40;99101.61;1660424;84;21047;-62
2022/01/17 07:10:30;;;;;;;24.45;17.25;;;;;;;1.15;76.21;99102.47;1668291;84;21043;-63
2022/01/17 07:12:57;;;;;;;29.18;18.42;;;;;;;1.17;75.96;99128.06;1672511;85;21507;-61
2022/01/17 07:15:23;;;;;;;24.27;16.73;;;;;;;1.18;75.93;99122.31;1667831;84;21589;-62
2022/01/17 07:17:49;;;;;;;25.95;16.02;;;;;;;1.18;75.81;99105.25;1669295;84;21027;-62
2022/01/17 07:20:16;;;;;;;23.98;16.80;;;;;;;1.16;75.77;99087.84;1682677;84;21833;-63
2022/01/17 07:22:44;;;;;;;29.80;17.30;;;;;;;1.20;75.75;99066.05;1673837;84;21070;-62
2022/01/17 07:25:11;;;;;;;27.67;17.73;;;;;;;1.23;75.64;99052.61;1677613;84;21022;-63
2022/01/17 07:27:40;;;;;;;31.57;17.40;;;;;;;1.24;75.31;99019.30;1684081;84;21050;-62
2022/01/17 07:30:09;;;;;;;35.23;19.37;;;;;;;1.26;75.10;98983.20;1680248;84;21090;-61
2022/01/17 07:32:37;;;;;;;25.23;15.77;;;;;;;1.27;75.03;98951.55;1670305;84;21094;-62
2022/01/17 07:35:08;;;;;;;25.03;16.70;;;;;;;1.28;74.95;98951.89;1671734;84;21066;-62
2022/01/17 07:37:35;;;;;;;25.13;15.90;;;;;;;1.28;74.99;98965.02;1675116;84;21006;-62
2022/01/17 07:40:01;;;;;;;;;;;;;;;1.32;74.81;98962.39;1681907;84;21113;-63
2022/01/17 07:42:28;;;;;;;21.87;16.37;;;;;;;1.36;74.74;98968.14;1678817;84;20134;-62
2022/01/17 07:44:55;;;;;;;;;;;;;;;1.32;74.80;98975.52;1682459;84;20968;-62
2022/01/17 07:47:41;;;;;;;29.23;17.57;;;;;;;1.37;74.83;98976.33;1683019;84;20107;-63
2022/01/17 07:49:54;;;;;;;31.47;18.53;;;;;;;1.39;74.86;98976.98;1679130;84;21099;-62
2022/01/17 07:52:20;;;;;;;28.20;17.82;;;;;;;1.45;74.70;98998.68;1682486;84;20999;-63
2022/01/17 07:54:47;;;;;;;29.10;19.27;;;;;;;1.50;74.65;99007.38;1682826;84;21073;-61
2022/01/17 07:57:14;;;;;;;27.03;19.03;;;;;;;1.54;74.61;99002.11;1692679;83;21009;-63
2022/01/17 07:59:40;;;;;;;;;;;;;;;1.59;74.29;98997.20;1673134;84;21130;-63
2022/01/17 08:02:06;;;;;;;27.27;18.53;;;;;;;1.64;74.27;98990.13;1677281;84;20184;-63
2022/01/17 08:04:33;;;;;;;26.77;18.25;;;;;;;1.63;74.29;98958.30;1677245;84;21114;-62
2022/01/17 08:06:59;;;;;;;29.65;18.57;;;;;;;1.66;74.03;98936.47;1653739;85;21046;-63
2022/01/17 08:09:32;;;;;;;27.37;17.37;;;;;;;1.67;74.00;98947.79;1672738;84;21059;-62
2022/01/17 08:12:00;;;;;;;31.13;22.30;;;;;;;1.70;74.16;98916.76;1683153;83;21150;-62
2022/01/17 08:14:28;;;;;;;24.47;17.60;;;;;;;1.79;74.29;98911.48;1720962;82;21034;-61
2022/01/17 08:16:55;;;;;;;;;;;;;;;1.84;74.15;98928.39;1698698;83;21899;-61
2022/01/17 08:19:24;;;;;;;25.97;18.10;;;;;;;1.82;73.75;98893.58;1696736;83;20167;-61
2022/01/17 08:21:51;;;;;;;26.23;18.07;;;;;;;1.88;73.63;98873.20;1695093;83;21090;-62
2022/01/17 08:24:20;;;;;;;25.63;17.87;;;;;;;1.92;73.59;98877.62;1701875;83;21039;-63
2022/01/17 08:26:50;;;;;;;30.83;19.33;;;;;;;1.97;73.63;98884.52;1695084;83;21544;-63
2022/01/17 08:29:17;;;;;;;26.03;18.80;;;;;;;2.01;73.60;98863.48;1695139;83;21034;-64
2022/01/17 08:31:46;;;;;;;30.27;19.75;;;;;;;2.03;73.40;98879.89;1698924;83;21025;-61
2022/01/17 08:34:17;;;;;;;27.77;19.67;;;;;;;2.02;73.50;98878.27;1713875;82;21438;-63
2022/01/17 08:36:45;;;;;;;28.63;19.27;;;;;;;1.98;73.59;98878.76;1717620;82;21068;-62
2022/01/17 08:39:12;;;;;;;29.33;18.87;;;;;;;2.00;73.70;98848.71;1700589;83;21528;-63
2022/01/17 08:41:42;;;;;;;24.20;18.77;;;;;;;2.12;73.55;98845.21;1722258;82;21343;-62
2022/01/17 08:44:07;;;;;;;31.00;19.77;;;;;;;2.17;73.46;98851.25;1691833;83;21035;-62
2022/01/17 08:46:33;;;;;;;;;;;;;;;2.11;73.51;98845.71;1701816;83;21490;-63
2022/01/17 08:48:59;;;;;;;25.10;17.00;;;;;;;2.08;73.61;98856.56;1717729;83;20132;-63
2022/01/17 08:51:25;;;;;;;29.75;20.05;;;;;;;2.02;73.99;98847.23;1694875;83;21059;-63
2022/01/17 08:53:52;;;;;;;25.75;18.07;;;;;;;2.03;73.93;98839.16;1692528;83;21063;-64
2022/01/17 08:56:19;;;;;;;24.55;15.88;;;;;;;2.09;74.05;98839.81;1695332;83;20997;-64
2022/01/17 08:58:45;;;;;;;28.30;20.50;;;;;;;2.13;73.91;98849.49;1696059;83;21478;-62
2022/01/17 09:01:13;;;;;;;31.75;19.92;;;;;;;2.13;73.95;98840.30;1693757;83;21584;-61
2022/01/17 09:03:40;;;;;;;30.70;20.77;;;;;;;2.12;73.97;98836.82;1698064;83;21583;-62
2022/01/17 09:06:06;;;;;;;31.63;21.60;;;;;;;2.10;74.11;98843.25;1698789;83;21548;-63
2022/01/17 09:08:34;;;;;;;25.40;18.60;;;;;;;2.08;74.22;98839.47;1682406;83;21010;-62
2022/01/17 09:11:01;;;;;;;28.02;19.10;;;;;;;2.11;74.17;98843.08;1698235;83;21526;-62
2022/01/17 09:13:28;;;;;;;23.73;17.48;;;;;;;2.16;74.05;98826.79;1701179;83;20990;-62
2022/01/17 09:15:55;;;;;;;27.43;19.40;;;;;;;2.21;74.01;98817.09;1684290;83;21379;-62
2022/01/17 09:18:24;;;;;;;32.23;20.97;;;;;;;2.25;73.84;98810.49;1697075;83;21022;-61
2022/01/17 09:20:51;;;;;;;31.27;21.87;;;;;;;2.27;73.87;98797.98;1697084;83;21122;-64
2022/01/17 09:23:18;;;;;;;24.67;18.47;;;;;;;2.30;74.02;98793.71;1694518;82;21004;-61
2022/01/17 09:25:46;;;;;;;29.17;20.77;;;;;;;2.35;73.74;98784.78;1691441;83;21065;-64
2022/01/17 09:28:13;;;;;;;26.30;19.20;;;;;;;2.36;73.60;98771.16;1699153;83;21597;-61
2022/01/17 09:30:40;;;;;;;28.32;18.98;;;;;;;2.38;73.41;98746.32;1698674;83;21518;-63
2022/01/17 09:33:07;;;;;;;24.97;19.03;;;;;;;2.43;73.17;98742.68;1691127;83;21096;-63
2022/01/17 09:35:34;;;;;;;26.40;20.57;;;;;;;2.50;73.15;98736.20;1696673;83;21019;-62
2022/01/17 09:38:01;;;;;;;25.87;18.20;;;;;;;2.58;72.74;98743.22;1712925;82;20962;-64
2022/01/17 09:40:28;;;;;;;26.47;17.97;;;;;;;2.61;72.69;98734.48;1702807;83;21089;-63
2022/01/17 09:42:56;;;;;;;22.40;17.07;;;;;;;2.62;72.46;98726.92;1700767;83;21033;-62
2022/01/17 09:45:23;;;;;;;23.17;16.20;;;;;;;2.60;72.34;98701.77;1701521;83;21499;-60
2022/01/17 09:47:49;;;;;;;21.75;15.93;;;;;;;2.51;72.36;98708.92;1713758;82;21600;-61
2022/01/17 09:50:21;;;;;;;25.10;18.20;;;;;;;2.47;72.42;98703.20;1737520;82;21035;-62
2022/01/17 09:52:52;;;;;;;24.80;17.70;;;;;;;2.46;72.48;98677.06;1734184;82;20998;-62
2022/01/17 09:55:23;;;;;;;23.77;17.03;;;;;;;2.46;72.51;98695.47;1706612;83;21105;-59
2022/01/17 09:58:06;;;;;;;23.67;18.83;;;;;;;2.46;72.63;98684.45;1737315;82;21047;-59
2022/01/17 10:00:37;;;;;;;23.30;17.13;;;;;;;2.48;72.67;98692.17;1715270;82;21565;-61
2022/01/17 10:03:09;;;;;;;24.43;18.00;;;;;;;2.48;72.74;98682.97;1681751;83;21096;-62
2022/01/17 10:05:37;;;;;;;23.70;16.93;;;;;;;2.45;72.85;98691.20;1692429;83;21017;-61
2022/01/17 10:08:09;;;;;;;22.37;15.60;;;;;;;2.42;73.06;98668.70;1700291;83;21033;-61
2022/01/17 10:10:56;;;;;;;22.77;16.87;;;;;;;2.44;72.98;98682.50;1699152;83;21095;-62
2022/01/17 10:13:24;;;;;;;22.37;17.87;;;;;;;2.48;72.82;98677.20;1665430;83;21025;-63
2022/01/17 10:16:11;;;;;;;26.00;20.97;;;;;;;2.52;72.78;98669.78;1665681;85;21570;-60
2022/01/17 10:19:00;;;;;;;25.32;17.92;;;;;;;2.56;72.74;98668.92;1663688;85;21004;-61
2022/01/17 10:21:46;;;;;;;24.83;17.87;;;;;;;2.52;72.76;98660.09;1644629;85;21057;-62
2022/01/17 10:27:09;;;;;;;24.83;17.43;;;;;;;2.41;72.96;98650.00;1654275;85;21070;-62
2022/01/17 10:35:15;;;;;;;21.87;17.43;;;;;;;2.39;73.23;98644.58;1635351;86;21117;-62
2022/01/17 10:38:02;;;;;;;23.30;18.43;;;;;;;2.38;73.40;98630.62;1642981;86;21029;-60
2022/01/17 10:40:45;;;;;;;24.57;18.17;;;;;;;2.41;73.54;98626.80;1637082;86;21016;-60
2022/01/17 10:43:25;;;;;;;24.40;17.77;;;;;;;2.47;73.34;98598.50;1645968;86;21159;-61
2022/01/17 10:45:55;;;;;;;22.53;16.80;;;;;;;2.49;73.13;98575.47;1676916;84;21002;-62
2022/01/17 10:48:31;;;;;;;21.37;16.77;;;;;;;2.50;73.03;98571.32;1676716;84;20998;-61
2022/01/17 10:50:59;;;;;;;22.02;16.27;;;;;;;2.53;72.95;98567.03;1686365;84;21045;-63
2022/01/17 10:53:26;;;;;;;23.43;16.43;;;;;;;2.61;72.95;98558.73;1659957;84;21518;-61
2022/01/17 10:55:56;;;;;;;22.03;16.13;;;;;;;2.62;72.69;98553.30;1649628;84;21129;-62
2022/01/17 10:58:28;;;;;;;21.37;17.50;;;;;;;2.62;72.53;98544.57;1689803;83;21496;-62
2022/01/17 11:00:59;;;;;;;24.97;17.83;;;;;;;2.61;72.26;98539.02;1687657;83;21012;-63
2022/01/17 11:03:30;;;;;;;25.40;17.27;;;;;;;2.57;72.18;98512.76;1717489;82;21601;-63
2022/01/17 11:06:00;;;;;;;22.07;16.80;;;;;;;2.56;72.21;98507.17;1708076;82;21009;-62
2022/01/17 11:08:29;;;;;;;23.23;17.23;;;;;;;2.59;72.22;98516.83;1719538;82;21062;-62
2022/01/17 11:11:02;;;;;;;23.47;17.40;;;;;;;2.63;72.14;98513.34;1715979;82;21083;-62
2022/01/17 11:13:34;;;;;;;21.17;17.00;;;;;;;2.68;72.06;98517.56;1686470;83;21170;-61
2022/01/17 11:16:04;;;;;;;21.97;17.27;;;;;;;2.65;71.94;98506.88;1677281;83;21076;-62
2022/01/17 11:18:31;;;;;;;23.03;16.13;;;;;;;2.60;71.85;98509.27;1721071;82;21070;-63
2022/01/17 11:21:06;;;;;;;;;;;;;;;2.57;71.94;98510.13;1723399;82;21559;-62
2022/01/17 11:23:32;;;;;;;19.97;15.33;;;;;;;2.57;72.17;98508.30;1674596;83;20151;-62
2022/01/17 11:25:58;;;;;;;17.52;13.62;;;;;;;2.58;72.13;98502.54;1657359;85;21040;-62
2022/01/17 11:28:29;;;;;;;19.17;15.00;;;;;;;2.61;72.11;98499.05;1661141;84;21131;-62
2022/01/17 11:30:59;;;;;;;22.33;15.80;;;;;;;2.61;72.12;98483.27;1668909;84;21051;-62
2022/01/17 11:33:27;;;;;;;22.03;17.03;;;;;;;2.59;72.14;98479.20;1661892;84;21174;-61
2022/01/17 11:35:56;;;;;;;20.37;15.50;;;;;;;2.56;72.30;98467.72;1666908;85;21118;-61
2022/01/17 11:38:42;;;;;;;18.60;14.43;;;;;;;2.56;72.40;98460.63;1668580;84;21089;-60
2022/01/17 11:41:34;;;;;;;19.83;14.90;;;;;;;2.57;72.27;98453.58;1653594;85;21077;-63
2022/01/17 11:44:06;;;;;;;19.53;15.07;;;;;;;2.61;72.04;98446.95;1665664;85;21067;-64
2022/01/17 11:46:37;;;;;;;20.30;15.37;;;;;;;2.64;72.01;98447.91;1663454;84;21071;-61
2022/01/17 11:49:08;;;;;;;18.03;14.70;;;;;;;2.63;71.94;98444.95;1663833;84;21127;-61
2022/01/17 11:51:46;;;;;;;19.03;14.50;;;;;;;2.63;72.02;98439.17;1668094;84;21030;-62